Time;durP1;ratioP1;P1;durP2;ratioP2;P2;SDS_P1;SDS_P2;PMS_P1;PMS_P2;Temp;Humidity;BMP_temperature;BMP_pressure;BME280_temperature;BME280_humidity;BME280_pressure;Samples;Min_cycle;Max_cycle;Signal;HPM_P1;HPM_P2
2021/11/13 00:00:57;;;;;;;37.53;15.18;;;;;;;;;;4971619;28;20031;-71
2021/11/13 00:03:23;;;;;;;33.45;15.00;;;;;;;;;;4953537;28;20401;-71
2021/11/13 00:05:50;;;;;;;28.38;14.32;;;;;;;;;;4972380;28;20034;-71
2021/11/13 00:08:16;;;;;;;37.67;16.83;;;;;;;;;;4971037;28;20081;-71
2021/11/13 00:10:42;;;;;;;34.15;15.07;;;;;;;;;;4969117;28;20024;-70
2021/11/13 00:13:09;;;;;;;48.28;16.42;;;;;;;;;;4973436;28;20027;-71
2021/11/13 00:15:35;;;;;;;31.13;15.85;;;;;;;;;;4965384;28;20037;-71
2021/11/13 00:18:02;;;;;;;39.63;16.90;;;;;;;;;;4970568;28;20069;-70
2021/11/13 00:20:28;;;;;;;37.13;17.65;;;;;;;;;;4963139;28;20031;-71
2021/11/13 00:22:55;;;;;;;55.15;18.15;;;;;;;;;;4974238;28;20445;-72
2021/11/13 00:25:22;;;;;;;28.83;17.17;;;;;;;;;;4972446;28;20030;-71
2021/11/13 00:27:48;;;;;;;31.98;15.75;;;;;;;;;;4952307;28;20448;-72
2021/11/13 00:30:15;;;;;;;44.88;17.20;;;;;;;;;;4972414;28;20023;-71
2021/11/13 00:32:41;;;;;;;43.40;19.55;;;;;;;;;;4971743;28;20039;-72
2021/11/13 00:35:07;;;;;;;39.65;16.95;;;;;;;;;;4957096;28;20031;-71
2021/11/13 00:37:33;;;;;;;33.83;18.27;;;;;;;;;;4971771;28;20026;-70
2021/11/13 00:39:59;;;;;;;40.65;19.00;;;;;;;;;;4971013;28;20512;-72
2021/11/13 00:42:26;;;;;;;43.88;18.23;;;;;;;;;;4972151;28;20378;-71
2021/11/13 00:44:52;;;;;;;35.40;18.77;;;;;;;;;;4971193;28;20445;-71
2021/11/13 00:47:19;;;;;;;40.65;19.50;;;;;;;;;;4954257;28;20038;-71
2021/11/13 00:49:45;;;;;;;37.28;20.27;;;;;;;;;;4971201;28;20031;-71
2021/11/13 00:52:11;;;;;;;36.45;19.73;;;;;;;;;;4975569;28;20398;-71
2021/11/13 00:54:37;;;;;;;38.70;18.63;;;;;;;;;;4962128;28;20109;-71
2021/11/13 00:57:05;;;;;;;34.22;17.85;;;;;;;;;;4971997;28;20027;-71
2021/11/13 00:59:31;;;;;;;32.00;18.25;;;;;;;;;;4953420;28;20110;-71
2021/11/13 01:01:58;;;;;;;43.67;20.48;;;;;;;;;;4971911;28;20023;-71
2021/11/13 01:04:24;;;;;;;28.08;16.88;;;;;;;;;;4971859;28;20102;-71
2021/11/13 01:06:50;;;;;;;44.88;19.55;;;;;;;;;;4971492;28;20015;-71
2021/11/13 01:09:17;;;;;;;46.33;17.98;;;;;;;;;;4969518;28;20023;-71
2021/11/13 01:11:43;;;;;;;39.20;18.10;;;;;;;;;;4978646;28;20030;-71
2021/11/13 01:14:09;;;;;;;35.25;18.90;;;;;;;;;;4969493;28;20493;-71
2021/11/13 01:16:36;;;;;;;39.05;18.50;;;;;;;;;;4969732;28;20529;-71
2021/11/13 01:19:02;;;;;;;37.22;20.20;;;;;;;;;;4969699;28;20039;-71
2021/11/13 01:21:28;;;;;;;43.83;18.88;;;;;;;;;;4971733;28;20023;-71
2021/11/13 01:23:54;;;;;;;41.30;19.27;;;;;;;;;;4971265;28;20085;-71
2021/11/13 01:26:21;;;;;;;42.63;20.58;;;;;;;;;;4970879;28;20116;-73
2021/11/13 01:28:47;;;;;;;33.38;19.25;;;;;;;;;;4969508;28;20533;-72
2021/11/13 01:31:15;;;;;;;43.13;19.08;;;;;;;;;;4970961;28;20553;-71
2021/11/13 01:33:41;;;;;;;43.67;18.95;;;;;;;;;;4970519;28;20027;-72
2021/11/13 01:36:07;;;;;;;37.58;19.20;;;;;;;;;;4955344;28;20094;-70
2021/11/13 01:38:34;;;;;;;36.58;18.38;;;;;;;;;;4971440;28;20027;-71
2021/11/13 01:41:00;;;;;;;31.98;17.73;;;;;;;;;;4975300;28;20054;-71
2021/11/13 01:43:27;;;;;;;25.85;18.08;;;;;;;;;;4974740;28;20035;-70
2021/11/13 01:45:53;;;;;;;33.72;18.42;;;;;;;;;;4966887;28;20034;-71
2021/11/13 01:48:19;;;;;;;33.88;18.38;;;;;;;;;;4973633;28;20026;-71
2021/11/13 01:50:46;;;;;;;28.50;18.05;;;;;;;;;;4974438;28;20039;-70
2021/11/13 01:53:13;;;;;;;26.27;17.15;;;;;;;;;;4974649;28;20438;-71
2021/11/13 01:55:40;;;;;;;33.78;18.70;;;;;;;;;;4974578;28;20033;-71
2021/11/13 01:58:07;;;;;;;34.75;17.27;;;;;;;;;;4955899;28;20962;-71
2021/11/13 02:00:41;;;;;;;31.20;16.50;;;;;;;;;;4975014;28;20114;-71
2021/11/13 02:03:07;;;;;;;54.20;20.60;;;;;;;;;;4973749;28;20035;-71
2021/11/13 02:05:34;;;;;;;33.58;18.27;;;;;;;;;;4974027;28;20038;-71
2021/11/13 02:08:00;;;;;;;36.55;17.75;;;;;;;;;;4955508;28;20401;-70
2021/11/13 02:10:27;;;;;;;37.22;18.60;;;;;;;;;;4972358;28;20027;-71
2021/11/13 02:12:54;;;;;;;42.58;22.30;;;;;;;;;;4973761;28;20489;-69
2021/11/13 02:15:21;;;;;;;36.42;18.55;;;;;;;;;;4960725;28;20027;-70
2021/11/13 02:17:47;;;;;;;31.17;18.65;;;;;;;;;;4973229;28;20047;-69
2021/11/13 02:20:31;;;;;;;33.28;18.05;;;;;;;;;;4974185;28;20031;-69
2021/11/13 02:22:58;;;;;;;34.00;18.33;;;;;;;;;;4966896;28;20448;-69
2021/11/13 02:25:26;;;;;;;39.47;17.50;;;;;;;;;;4973871;28;20030;-69
2021/11/13 02:27:52;;;;;;;36.58;17.60;;;;;;;;;;4955093;28;20049;-69
2021/11/13 02:30:19;;;;;;;26.40;16.88;;;;;;;;;;4974246;28;20053;-69
2021/11/13 02:32:46;;;;;;;26.58;18.30;;;;;;;;;;4974081;28;20078;-69
2021/11/13 02:35:13;;;;;;;27.23;18.20;;;;;;;;;;4961255;28;20029;-70
2021/11/13 02:37:39;;;;;;;33.10;17.60;;;;;;;;;;4973729;28;20034;-71
2021/11/13 02:40:06;;;;;;;32.63;17.67;;;;;;;;;;4967064;28;20590;-70
2021/11/13 02:42:34;;;;;;;41.85;18.38;;;;;;;;;;4954106;28;20043;-70
2021/11/13 02:45:00;;;;;;;39.33;17.83;;;;;;;;;;4955892;28;20030;-71
2021/11/13 02:47:27;;;;;;;31.98;17.60;;;;;;;;;;4956908;28;20505;-70
2021/11/13 02:49:53;;;;;;;38.80;17.27;;;;;;;;;;4970600;28;20101;-70
2021/11/13 02:52:20;;;;;;;29.95;17.55;;;;;;;;;;4973733;28;20035;-71
2021/11/13 02:54:46;;;;;;;32.97;17.10;;;;;;;;;;4973923;28;20030;-71
2021/11/13 02:57:13;;;;;;;43.22;18.83;;;;;;;;;;4973110;28;20031;-71
2021/11/13 02:59:46;;;;;;;37.45;17.83;;;;;;;;;;4970440;28;20027;-70
2021/11/13 03:02:12;;;;;;;43.25;18.02;;;;;;;;;;4972744;28;20026;-71
2021/11/13 03:04:38;;;;;;;31.13;19.40;;;;;;;;;;4971842;28;20030;-71
2021/11/13 03:07:06;;;;;;;38.28;19.73;;;;;;;;;;4969364;28;20023;-71
2021/11/13 03:09:33;;;;;;;29.48;18.77;;;;;;;;;;4969395;28;20433;-71
2021/11/13 03:11:59;;;;;;;32.40;18.98;;;;;;;;;;4973589;28;20038;-71
2021/11/13 03:14:25;;;;;;;34.92;17.98;;;;;;;;;;4973111;28;20031;-72
2021/11/13 03:16:51;;;;;;;39.45;20.35;;;;;;;;;;4973005;28;20039;-71
2021/11/13 03:19:17;;;;;;;32.45;19.13;;;;;;;;;;4961234;28;20505;-71
2021/11/13 03:21:43;;;;;;;32.42;20.10;;;;;;;;;;4973223;28;20031;-71
2021/11/13 03:24:10;;;;;;;33.33;20.75;;;;;;;;;;4958749;28;20035;-71
2021/11/13 03:26:39;;;;;;;31.20;19.90;;;;;;;;;;4972716;28;20130;-71
2021/11/13 03:29:08;;;;;;;41.00;21.77;;;;;;;;;;4956058;28;20122;-72
2021/11/13 03:31:34;;;;;;;37.88;19.77;;;;;;;;;;4972735;28;20031;-71
2021/11/13 03:34:00;;;;;;;30.23;19.00;;;;;;;;;;4957723;28;20030;-71
2021/11/13 03:36:26;;;;;;;39.92;20.20;;;;;;;;;;4972972;28;20557;-71
2021/11/13 03:38:53;;;;;;;31.02;19.10;;;;;;;;;;4970620;28;20034;-71
2021/11/13 03:41:20;;;;;;;36.63;19.77;;;;;;;;;;4972096;28;20035;-72
2021/11/13 03:43:46;;;;;;;36.35;20.45;;;;;;;;;;4964595;28;20106;-72
2021/11/13 03:46:13;;;;;;;44.83;23.40;;;;;;;;;;4972732;28;20536;-72
2021/11/13 03:48:39;;;;;;;43.55;21.33;;;;;;;;;;4971516;28;20025;-73
2021/11/13 03:51:06;;;;;;;37.03;20.90;;;;;;;;;;4972576;28;20118;-71
2021/11/13 03:53:32;;;;;;;31.52;20.33;;;;;;;;;;4972697;28;20553;-73
2021/11/13 03:55:58;;;;;;;34.92;20.58;;;;;;;;;;4972342;28;20023;-71
2021/11/13 03:58:24;;;;;;;38.40;21.83;;;;;;;;;;4953863;28;20098;-71
2021/11/13 04:00:50;;;;;;;33.50;19.42;;;;;;;;;;4971773;28;20143;-71
2021/11/13 04:03:16;;;;;;;25.58;20.40;;;;;;;;;;4979195;28;20425;-72
2021/11/13 04:05:42;;;;;;;38.58;21.13;;;;;;;;;;4974702;28;20022;-71
2021/11/13 04:08:09;;;;;;;33.28;20.73;;;;;;;;;;4971127;28;20026;-71
2021/11/13 04:10:35;;;;;;;27.92;21.23;;;;;;;;;;4971395;28;20121;-71
2021/11/13 04:13:01;;;;;;;30.80;20.27;;;;;;;;;;4971850;28;20033;-71
2021/11/13 04:15:27;;;;;;;26.83;21.73;;;;;;;;;;4955494;28;20031;-71
2021/11/13 04:17:53;;;;;;;28.27;21.95;;;;;;;;;;4970548;28;20046;-71
2021/11/13 04:20:20;;;;;;;34.83;22.33;;;;;;;;;;4954614;28;20069;-71
2021/11/13 04:22:47;;;;;;;29.52;24.58;;;;;;;;;;4951888;28;20037;-71
2021/11/13 04:25:13;;;;;;;31.70;23.23;;;;;;;;;;4970225;28;20033;-71
2021/11/13 04:27:39;;;;;;;31.52;25.10;;;;;;;;;;4971122;28;20027;-70
2021/11/13 04:30:06;;;;;;;31.08;25.75;;;;;;;;;;4970920;28;20030;-71
2021/11/13 04:32:34;;;;;;;31.50;24.23;;;;;;;;;;4954555;28;20023;-72
2021/11/13 04:37:28;;;;;;;25.77;22.88;;;;;;;;;;4974170;28;20031;-72
2021/11/13 04:39:54;;;;;;;31.05;23.45;;;;;;;;;;4970585;28;20078;-70
2021/11/13 04:42:20;;;;;;;25.10;22.30;;;;;;;;;;4969321;28;20074;-70
2021/11/13 04:44:47;;;;;;;25.38;23.05;;;;;;;;;;4971382;28;20030;-71
2021/11/13 04:47:13;;;;;;;32.83;23.45;;;;;;;;;;4972187;28;20022;-70
2021/11/13 04:49:39;;;;;;;25.55;22.77;;;;;;;;;;4970597;28;20027;-70
2021/11/13 04:52:06;;;;;;;22.77;20.45;;;;;;;;;;4955594;28;20046;-72
2021/11/13 04:54:32;;;;;;;25.67;20.95;;;;;;;;;;4971578;28;20544;-71
2021/11/13 04:56:58;;;;;;;28.27;22.63;;;;;;;;;;4971797;28;20054;-71
2021/11/13 04:59:24;;;;;;;26.92;20.63;;;;;;;;;;4969872;28;20035;-74
2021/11/13 05:01:50;;;;;;;36.83;22.45;;;;;;;;;;4949803;28;20054;-72
2021/11/13 05:04:17;;;;;;;34.55;21.45;;;;;;;;;;4971932;28;20040;-71
2021/11/13 05:06:43;;;;;;;30.48;20.58;;;;;;;;;;4970945;28;20054;-71
2021/11/13 05:09:09;;;;;;;33.65;22.63;;;;;;;;;;4970581;28;20081;-72
2021/11/13 05:11:35;;;;;;;25.25;21.13;;;;;;;;;;4971411;28;20106;-71
2021/11/13 05:14:01;;;;;;;24.20;21.52;;;;;;;;;;4973233;28;20022;-71
2021/11/13 05:16:27;;;;;;;28.73;21.77;;;;;;;;;;4957954;28;20027;-71
2021/11/13 05:18:53;;;;;;;37.05;24.67;;;;;;;;;;4973735;28;20070;-71
2021/11/13 05:21:19;;;;;;;26.25;21.55;;;;;;;;;;4965005;28;20039;-72
2021/11/13 05:23:45;;;;;;;32.38;23.10;;;;;;;;;;4974929;28;20027;-72
2021/11/13 05:26:11;;;;;;;26.02;21.15;;;;;;;;;;4975440;28;20026;-70
2021/11/13 05:28:38;;;;;;;33.83;22.33;;;;;;;;;;4978299;28;20034;-70
2021/11/13 05:31:05;;;;;;;41.67;23.33;;;;;;;;;;4957950;28;20035;-73
2021/11/13 05:33:31;;;;;;;48.38;22.48;;;;;;;;;;4974622;28;20057;-70
2021/11/13 05:35:57;;;;;;;32.25;21.00;;;;;;;;;;4959687;28;20441;-70
2021/11/13 05:38:23;;;;;;;25.65;20.33;;;;;;;;;;4973781;28;20041;-71
2021/11/13 05:40:50;;;;;;;44.05;20.55;;;;;;;;;;4975156;28;20078;-70
2021/11/13 05:43:16;;;;;;;27.95;21.30;;;;;;;;;;4974977;28;20022;-70
2021/11/13 05:45:42;;;;;;;31.58;19.85;;;;;;;;;;4977037;28;20042;-71
2021/11/13 05:48:08;;;;;;;31.48;19.63;;;;;;;;;;4977302;28;20034;-69
2021/11/13 05:50:35;;;;;;;30.25;19.70;;;;;;;;;;4974427;28;20386;-69
2021/11/13 05:53:01;;;;;;;30.00;20.67;;;;;;;;;;4977480;28;20062;-69
2021/11/13 05:55:27;;;;;;;32.40;20.42;;;;;;;;;;4960090;28;20085;-69
2021/11/13 05:57:54;;;;;;;20.70;18.52;;;;;;;;;;4980244;28;20041;-70
2021/11/13 06:00:21;;;;;;;29.38;19.48;;;;;;;;;;4974847;28;20023;-70
2021/11/13 06:02:47;;;;;;;29.48;20.52;;;;;;;;;;4965452;28;20039;-70
2021/11/13 06:05:14;;;;;;;27.92;20.83;;;;;;;;;;4974549;28;20031;-69
2021/11/13 06:07:40;;;;;;;27.75;19.23;;;;;;;;;;4973784;28;20022;-69
2021/11/13 06:10:08;;;;;;;26.50;18.17;;;;;;;;;;4964330;28;20030;-69
2021/11/13 06:12:34;;;;;;;23.50;17.92;;;;;;;;;;4974549;28;20038;-69
2021/11/13 06:15:00;;;;;;;30.58;18.83;;;;;;;;;;4973474;28;20027;-69
2021/11/13 06:17:27;;;;;;;32.28;19.92;;;;;;;;;;4966367;28;20050;-69
2021/11/13 06:19:54;;;;;;;33.03;19.67;;;;;;;;;;4973636;28;20397;-69
2021/11/13 06:22:21;;;;;;;34.80;19.48;;;;;;;;;;4980700;28;20632;-69
2021/11/13 06:24:47;;;;;;;30.27;19.27;;;;;;;;;;4961145;28;20378;-69
2021/11/13 06:27:15;;;;;;;32.72;19.35;;;;;;;;;;4974174;28;20023;-70
2021/11/13 06:29:42;;;;;;;32.67;20.77;;;;;;;;;;4972548;28;20405;-70
2021/11/13 06:32:08;;;;;;;28.35;19.75;;;;;;;;;;4973908;28;20026;-70
2021/11/13 06:34:34;;;;;;;26.25;20.88;;;;;;;;;;4973702;28;20027;-69
2021/11/13 06:37:00;;;;;;;32.13;20.60;;;;;;;;;;4974176;28;20406;-70
2021/11/13 06:39:27;;;;;;;30.92;22.15;;;;;;;;;;4972797;28;20413;-70
2021/11/13 06:41:53;;;;;;;25.67;19.55;;;;;;;;;;4973491;28;20038;-70
2021/11/13 06:44:19;;;;;;;37.13;18.92;;;;;;;;;;4973520;28;20482;-71
2021/11/13 06:46:45;;;;;;;31.85;18.40;;;;;;;;;;4978305;28;20049;-70
2021/11/13 06:49:11;;;;;;;41.92;19.55;;;;;;;;;;4976044;28;20054;-70
2021/11/13 06:51:37;;;;;;;35.05;21.02;;;;;;;;;;4972361;28;20026;-70
2021/11/13 06:54:04;;;;;;;42.45;20.85;;;;;;;;;;4980707;28;20400;-70
2021/11/13 06:56:30;;;;;;;33.88;19.65;;;;;;;;;;4973217;28;20189;-70
2021/11/13 06:58:56;;;;;;;31.42;20.48;;;;;;;;;;4971319;28;20042;-70
2021/11/13 07:01:22;;;;;;;29.80;19.20;;;;;;;;;;4974902;28;20027;-70
2021/11/13 07:03:48;;;;;;;30.10;20.27;;;;;;;;;;4973952;28;20038;-70
2021/11/13 07:06:15;;;;;;;25.42;21.52;;;;;;;;;;4975564;28;20031;-72
2021/11/13 07:08:41;;;;;;;28.55;21.52;;;;;;;;;;4973332;28;20497;-70
2021/11/13 07:11:07;;;;;;;38.80;23.50;;;;;;;;;;4962772;28;20038;-70
2021/11/13 07:13:33;;;;;;;28.23;21.30;;;;;;;;;;4954806;28;20034;-70
2021/11/13 07:16:00;;;;;;;32.83;20.90;;;;;;;;;;4972421;28;20038;-70
2021/11/13 07:18:26;;;;;;;25.52;20.40;;;;;;;;;;4965135;28;20070;-70
2021/11/13 07:20:53;;;;;;;30.88;20.85;;;;;;;;;;4975813;28;20102;-71
2021/11/13 07:23:19;;;;;;;38.85;22.83;;;;;;;;;;4961227;28;20035;-70
2021/11/13 07:25:45;;;;;;;37.78;20.95;;;;;;;;;;4971335;28;20054;-70
2021/11/13 07:28:14;;;;;;;27.33;20.95;;;;;;;;;;4965805;28;20019;-70
2021/11/13 07:30:42;;;;;;;35.00;21.77;;;;;;;;;;4952437;28;20085;-69
2021/11/13 07:33:09;;;;;;;31.38;21.60;;;;;;;;;;4959515;28;20034;-70
2021/11/13 07:35:39;;;;;;;29.38;19.80;;;;;;;;;;4969566;28;20046;-69
2021/11/13 07:38:05;;;;;;;22.88;18.33;;;;;;;;;;4972672;28;20247;-69
2021/11/13 07:40:32;;;;;;;20.65;18.58;;;;;;;;;;4975228;28;20039;-70
2021/11/13 07:43:00;;;;;;;27.20;18.83;;;;;;;;;;4972788;28;20031;-70
2021/11/13 07:45:26;;;;;;;24.52;18.20;;;;;;;;;;4974238;28;20031;-70
2021/11/13 07:47:52;;;;;;;23.17;16.90;;;;;;;;;;4971857;28;20038;-71
2021/11/13 07:50:18;;;;;;;26.15;17.20;;;;;;;;;;4966273;28;20039;-70
2021/11/13 07:52:45;;;;;;;22.48;16.60;;;;;;;;;;4970734;28;20382;-69
2021/11/13 07:55:12;;;;;;;25.80;16.83;;;;;;;;;;4963938;28;20412;-69
2021/11/13 07:57:38;;;;;;;25.30;16.42;;;;;;;;;;4972185;28;20027;-69
2021/11/13 08:00:07;;;;;;;30.55;16.33;;;;;;;;;;4970830;28;20038;-69
2021/11/13 08:02:33;;;;;;;21.60;16.40;;;;;;;;;;4971718;28;20046;-69
2021/11/13 08:04:59;;;;;;;29.50;16.35;;;;;;;;;;4972788;28;20031;-69
2021/11/13 08:07:26;;;;;;;23.98;16.92;;;;;;;;;;4972301;28;20026;-69
2021/11/13 08:09:52;;;;;;;25.40;17.67;;;;;;;;;;4956762;28;20022;-69
2021/11/13 08:12:19;;;;;;;27.58;17.00;;;;;;;;;;4970139;28;20058;-70
2021/11/13 08:14:45;;;;;;;25.08;18.63;;;;;;;;;;4972664;28;20027;-70
2021/11/13 08:17:11;;;;;;;30.27;18.40;;;;;;;;;;4971183;28;20023;-70
2021/11/13 08:19:37;;;;;;;31.38;20.83;;;;;;;;;;4969673;28;20033;-70
2021/11/13 08:22:03;;;;;;;34.47;19.15;;;;;;;;;;4969534;28;20023;-70
2021/11/13 08:24:29;;;;;;;28.27;19.02;;;;;;;;;;4971876;28;20050;-70
2021/11/13 08:26:55;;;;;;;27.73;20.45;;;;;;;;;;4970243;28;20030;-70
2021/11/13 08:29:21;;;;;;;32.13;21.25;;;;;;;;;;4971095;28;20066;-70
2021/11/13 08:31:47;;;;;;;35.78;18.70;;;;;;;;;;4970719;28;20023;-70
2021/11/13 08:34:14;;;;;;;29.95;18.95;;;;;;;;;;4969208;28;20046;-70
2021/11/13 08:36:40;;;;;;;26.30;19.45;;;;;;;;;;4955017;28;20134;-70
2021/11/13 08:39:07;;;;;;;33.45;19.42;;;;;;;;;;4969558;28;20397;-70
2021/11/13 08:41:33;;;;;;;22.45;19.25;;;;;;;;;;4954826;28;20053;-69
2021/11/13 08:43:59;;;;;;;24.67;18.48;;;;;;;;;;4970208;28;20397;-70
2021/11/13 08:46:25;;;;;;;23.13;18.67;;;;;;;;;;4971895;28;20066;-70
2021/11/13 08:48:51;;;;;;;33.53;19.63;;;;;;;;;;4969520;28;20030;-70
2021/11/13 08:51:17;;;;;;;24.40;18.27;;;;;;;;;;4972665;28;20101;-70
2021/11/13 08:53:47;;;;;;;26.17;18.08;;;;;;;;;;4968906;28;20024;-70
2021/11/13 08:56:13;;;;;;;27.65;17.50;;;;;;;;;;4956710;28;20030;-70
2021/11/13 08:58:39;;;;;;;25.60;17.45;;;;;;;;;;4970037;28;20030;-70
2021/11/13 09:01:06;;;;;;;29.33;17.27;;;;;;;;;;4972053;28;20031;-71
2021/11/13 09:03:35;;;;;;;29.58;18.40;;;;;;;;;;4976776;28;20035;-70
2021/11/13 09:06:02;;;;;;;25.58;18.58;;;;;;;;;;4969456;28;20027;-71
2021/11/13 09:08:32;;;;;;;23.17;19.30;;;;;;;;;;4969172;28;20023;-70
2021/11/13 09:11:00;;;;;;;34.85;20.77;;;;;;;;;;4951980;28;20030;-70
2021/11/13 09:13:27;;;;;;;22.35;20.08;;;;;;;;;;4952122;28;20383;-70
2021/11/13 09:15:56;;;;;;;22.70;20.45;;;;;;;;;;4965344;28;20057;-71
2021/11/13 09:18:22;;;;;;;25.88;19.77;;;;;;;;;;4951924;28;20054;-70
2021/11/13 09:20:48;;;;;;;33.13;19.40;;;;;;;;;;4965512;28;20041;-70
2021/11/13 09:23:14;;;;;;;36.70;19.88;;;;;;;;;;4968034;28;20114;-71
2021/11/13 09:25:44;;;;;;;20.98;17.50;;;;;;;;;;4968369;28;20129;-71
2021/11/13 09:28:11;;;;;;;30.58;19.13;;;;;;;;;;4960110;28;20038;-71
2021/11/13 09:30:37;;;;;;;32.65;20.20;;;;;;;;;;4968460;28;20023;-72
2021/11/13 09:33:04;;;;;;;29.88;20.67;;;;;;;;;;4961024;28;20490;-70
2021/11/13 09:35:30;;;;;;;25.63;19.08;;;;;;;;;;4962147;28;20405;-70
2021/11/13 09:37:57;;;;;;;27.10;20.83;;;;;;;;;;4974597;28;20027;-71
2021/11/13 09:40:24;;;;;;;24.70;17.88;;;;;;;;;;4974932;28;20413;-69
2021/11/13 09:42:52;;;;;;;24.65;19.17;;;;;;;;;;4966433;28;20046;-71
2021/11/13 09:45:19;;;;;;;23.98;20.08;;;;;;;;;;4962910;28;20082;-70
2021/11/13 09:47:47;;;;;;;32.53;20.13;;;;;;;;;;4959247;28;20023;-70
2021/11/13 09:50:14;;;;;;;21.75;19.48;;;;;;;;;;4964860;28;20028;-71
2021/11/13 09:52:40;;;;;;;36.50;20.98;;;;;;;;;;4964438;28;20028;-70
2021/11/13 09:55:08;;;;;;;24.75;20.33;;;;;;;;;;4966520;28;20066;-71
2021/11/13 09:57:34;;;;;;;27.98;20.65;;;;;;;;;;4962126;28;20058;-70
2021/11/13 10:00:00;;;;;;;39.92;20.65;;;;;;;;;;4966618;28;20022;-70
2021/11/13 10:02:26;;;;;;;24.10;19.05;;;;;;;;;;4966087;28;20293;-70
2021/11/13 10:04:52;;;;;;;31.98;19.13;;;;;;;;;;4970184;28;20031;-70
2021/11/13 10:07:18;;;;;;;32.70;19.38;;;;;;;;;;4954974;28;20066;-71
2021/11/13 10:09:48;;;;;;;25.52;19.67;;;;;;;;;;4947090;28;20047;-70
2021/11/13 10:12:14;;;;;;;22.80;19.42;;;;;;;;;;4964272;28;20109;-70
2021/11/13 10:14:42;;;;;;;28.85;19.15;;;;;;;;;;4963868;28;20030;-70
2021/11/13 10:17:24;;;;;;;31.17;19.15;;;;;;;;;;4948640;28;20042;-71
2021/11/13 10:19:51;;;;;;;30.55;20.45;;;;;;;;;;4961272;28;20034;-71
2021/11/13 10:22:18;;;;;;;23.17;20.17;;;;;;;;;;4970867;28;20181;-70
2021/11/13 10:24:48;;;;;;;24.25;20.98;;;;;;;;;;4965557;28;20042;-71
2021/11/13 10:27:15;;;;;;;31.10;20.40;;;;;;;;;;4964928;28;20098;-71
2021/11/13 10:29:44;;;;;;;21.70;19.30;;;;;;;;;;4961538;28;20117;-71
2021/11/13 10:32:11;;;;;;;28.65;19.63;;;;;;;;;;4964345;28;20049;-70
2021/11/13 10:34:41;;;;;;;26.08;21.27;;;;;;;;;;4961631;28;20077;-71
2021/11/13 10:37:09;;;;;;;23.52;21.00;;;;;;;;;;4961719;28;20019;-72
2021/11/13 10:39:38;;;;;;;21.35;19.15;;;;;;;;;;4960141;28;20035;-71
2021/11/13 10:42:07;;;;;;;20.85;18.80;;;;;;;;;;4965558;28;20528;-70
2021/11/13 10:44:35;;;;;;;21.35;19.40;;;;;;;;;;4968927;28;20494;-71
2021/11/13 10:47:03;;;;;;;21.50;19.23;;;;;;;;;;4967673;28;20027;-71
2021/11/13 10:49:29;;;;;;;23.58;20.90;;;;;;;;;;4965991;28;20394;-71
2021/11/13 10:52:00;;;;;;;23.48;21.05;;;;;;;;;;4964333;28;20029;-71
2021/11/13 10:54:27;;;;;;;22.98;20.77;;;;;;;;;;4954175;28;20031;-72
2021/11/13 10:56:57;;;;;;;24.15;20.40;;;;;;;;;;4972381;28;20031;-71
2021/11/13 10:59:31;;;;;;;27.35;21.35;;;;;;;;;;4969062;28;20502;-71
2021/11/13 11:01:58;;;;;;;26.65;20.45;;;;;;;;;;4970965;28;20027;-71
2021/11/13 11:04:26;;;;;;;23.38;21.40;;;;;;;;;;4972175;28;20190;-71
2021/11/13 11:06:53;;;;;;;22.77;20.42;;;;;;;;;;4969653;28;20066;-72
2021/11/13 11:09:37;;;;;;;22.48;20.35;;;;;;;;;;4968422;28;20034;-70
2021/11/13 11:12:10;;;;;;;25.38;21.23;;;;;;;;;;4969893;28;20440;-71
2021/11/13 11:14:38;;;;;;;23.65;20.48;;;;;;;;;;4969907;28;20109;-71
2021/11/13 11:17:07;;;;;;;22.40;20.13;;;;;;;;;;4967938;28;20114;-71
2021/11/13 11:19:34;;;;;;;24.33;20.80;;;;;;;;;;4965616;28;20063;-71
2021/11/13 11:22:00;;;;;;;23.70;20.83;;;;;;;;;;4953133;28;20031;-70
2021/11/13 11:24:31;;;;;;;31.38;20.20;;;;;;;;;;4971007;28;20113;-70
2021/11/13 11:27:09;;;;;;;27.20;20.20;;;;;;;;;;4969556;28;20134;-70
2021/11/13 11:29:38;;;;;;;23.08;20.58;;;;;;;;;;4967333;28;20045;-70
2021/11/13 11:32:06;;;;;;;22.75;20.17;;;;;;;;;;4969533;28;20085;-70
2021/11/13 11:34:43;;;;;;;28.25;19.98;;;;;;;;;;4951103;28;20019;-70
2021/11/13 11:37:09;;;;;;;23.65;20.25;;;;;;;;;;4952476;28;20027;-71
2021/11/13 11:39:35;;;;;;;24.60;21.90;;;;;;;;;;4950624;28;20078;-71
2021/11/13 11:42:02;;;;;;;23.40;20.77;;;;;;;;;;4969068;28;20027;-71
2021/11/13 11:44:28;;;;;;;22.58;20.45;;;;;;;;;;4971956;28;20066;-71
2021/11/13 11:46:54;;;;;;;23.42;21.42;;;;;;;;;;4971960;28;20039;-69
2021/11/13 11:49:20;;;;;;;24.95;21.70;;;;;;;;;;4968936;28;20050;-71
2021/11/13 11:51:47;;;;;;;25.38;22.73;;;;;;;;;;4969603;28;20023;-71
2021/11/13 11:54:13;;;;;;;22.73;20.85;;;;;;;;;;4971234;28;20023;-71
2021/11/13 11:56:39;;;;;;;23.08;20.80;;;;;;;;;;4972104;28;20038;-71
2021/11/13 11:59:06;;;;;;;22.95;20.92;;;;;;;;;;4968611;28;20081;-69
2021/11/13 12:01:38;;;;;;;25.30;21.98;;;;;;;;;;4970295;28;20118;-70
2021/11/13 12:04:11;;;;;;;23.15;21.38;;;;;;;;;;4972114;28;20033;-70
2021/11/13 12:06:56;;;;;;;22.73;20.95;;;;;;;;;;4970116;28;20038;-70
2021/11/13 12:09:27;;;;;;;22.33;19.90;;;;;;;;;;4972793;28;20026;-71
2021/11/13 12:12:13;;;;;;;22.35;20.23;;;;;;;;;;4954218;28;20046;-70
2021/11/13 12:14:40;;;;;;;21.80;20.02;;;;;;;;;;4971076;28;20097;-69
2021/11/13 12:17:26;;;;;;;21.73;19.50;;;;;;;;;;4955109;28;20053;-69
2021/11/13 12:20:04;;;;;;;21.17;19.10;;;;;;;;;;4963835;28;20031;-69
2021/11/13 12:22:35;;;;;;;21.30;19.17;;;;;;;;;;4971982;28;20023;-70
2021/11/13 12:25:16;;;;;;;20.45;18.88;;;;;;;;;;4968537;28;20077;-69
2021/11/13 12:27:42;;;;;;;20.65;18.88;;;;;;;;;;4951861;28;20119;-70
2021/11/13 12:30:09;;;;;;;21.90;19.88;;;;;;;;;;4968415;28;20027;-70
2021/11/13 12:32:38;;;;;;;19.88;18.10;;;;;;;;;;4951764;28;20237;-70
2021/11/13 12:35:05;;;;;;;19.92;18.10;;;;;;;;;;4969064;28;20030;-72
2021/11/13 12:37:31;;;;;;;21.08;19.10;;;;;;;;;;4969590;28;20050;-70
2021/11/13 12:39:59;;;;;;;20.30;18.70;;;;;;;;;;4950841;28;20031;-70
2021/11/13 12:42:27;;;;;;;21.65;19.75;;;;;;;;;;4969686;28;20049;-70
2021/11/13 12:44:57;;;;;;;20.98;18.98;;;;;;;;;;4969193;28;20026;-70
2021/11/13 12:47:29;;;;;;;21.20;19.23;;;;;;;;;;4970392;28;20034;-70
2021/11/13 12:49:57;;;;;;;21.27;19.42;;;;;;;;;;4967517;28;20069;-71
2021/11/13 12:52:32;;;;;;;33.88;19.77;;;;;;;;;;4970824;28;20018;-70
2021/11/13 12:55:04;;;;;;;22.15;19.88;;;;;;;;;;4967903;28;20031;-70
2021/11/13 12:57:41;;;;;;;22.73;20.55;;;;;;;;;;4970026;28;20027;-70
2021/11/13 13:00:10;;;;;;;24.80;20.08;;;;;;;;;;4969728;28;20015;-70
2021/11/13 13:02:37;;;;;;;25.38;19.05;;;;;;;;;;4972755;28;20019;-70
2021/11/13 13:05:04;;;;;;;22.23;20.00;;;;;;;;;;4970851;28;20093;-70
2021/11/13 13:07:30;;;;;;;22.50;20.40;;;;;;;;;;4970874;28;20049;-70
2021/11/13 13:10:01;;;;;;;30.23;22.73;;;;;;;;;;4954919;28;20019;-70
2021/11/13 13:12:32;;;;;;;26.17;21.60;;;;;;;;;;4968730;28;20030;-69
2021/11/13 13:15:04;;;;;;;25.30;22.25;;;;;;;;;;4969924;28;20271;-70
2021/11/13 13:17:31;;;;;;;24.13;21.13;;;;;;;;;;4969976;28;20118;-71
2021/11/13 13:19:58;;;;;;;24.75;21.15;;;;;;;;;;4952736;28;20122;-70
2021/11/13 13:22:24;;;;;;;25.58;21.40;;;;;;;;;;4971960;28;20042;-72
2021/11/13 13:24:55;;;;;;;27.55;21.58;;;;;;;;;;4952550;28;20039;-73
2021/11/13 13:27:22;;;;;;;22.67;20.37;;;;;;;;;;4956406;28;20035;-72
2021/11/13 13:30:01;;;;;;;25.95;20.40;;;;;;;;;;4966932;28;20113;-71
2021/11/13 13:32:28;;;;;;;25.58;20.17;;;;;;;;;;4968367;28;20031;-71
2021/11/13 13:34:57;;;;;;;21.80;19.83;;;;;;;;;;4971685;28;20022;-72
2021/11/13 13:37:46;;;;;;;25.30;21.15;;;;;;;;;;4956779;28;20027;-72
2021/11/13 13:40:20;;;;;;;22.88;18.98;;;;;;;;;;4972115;28;20043;-73
2021/11/13 13:42:46;;;;;;;22.52;20.40;;;;;;;;;;4971409;28;20046;-72
2021/11/13 13:45:12;;;;;;;22.10;19.77;;;;;;;;;;4958640;28;20413;-71
2021/11/13 13:47:38;;;;;;;23.38;21.55;;;;;;;;;;4971667;28;20061;-72
2021/11/13 13:50:06;;;;;;;24.60;19.35;;;;;;;;;;4978024;28;20031;-71
2021/11/13 13:52:40;;;;;;;22.83;20.15;;;;;;;;;;4969751;28;20035;-72
2021/11/13 13:55:07;;;;;;;21.60;19.50;;;;;;;;;;4973429;28;20038;-70
2021/11/13 13:57:34;;;;;;;24.80;19.50;;;;;;;;;;4973177;28;20113;-70
2021/11/13 14:00:02;;;;;;;22.02;19.77;;;;;;;;;;4971318;28;20023;-70
2021/11/13 14:02:28;;;;;;;25.48;20.25;;;;;;;;;;4972462;28;20082;-71
2021/11/13 14:04:55;;;;;;;23.02;20.58;;;;;;;;;;4974034;28;20027;-71
2021/11/13 14:07:24;;;;;;;24.10;19.42;;;;;;;;;;4975664;28;20039;-72
2021/11/13 14:10:05;;;;;;;23.17;20.42;;;;;;;;;;4966618;28;20462;-71
2021/11/13 14:12:40;;;;;;;28.88;20.80;;;;;;;;;;4970291;28;20030;-71
2021/11/13 14:15:10;;;;;;;21.73;19.73;;;;;;;;;;4972782;28;20074;-73
2021/11/13 14:17:36;;;;;;;22.25;19.17;;;;;;;;;;4954630;28;20397;-71
2021/11/13 14:20:10;;;;;;;22.08;19.95;;;;;;;;;;4972388;28;20022;-72